Main page
METAR-TAF:

METAR-TAF

Airports :

Boscombe Down, England

MoD Boscombe Down

latitude: 51-10N, longitude: 001-45W, elevation: 124 m

Current weather observation

The report was made 59 minutes ago, at 16:50 UTC
Wind 11 kt from the West/Northwest
Temperature 12°C
Humidity 67%
Pressure 1016 hPa
Visibility 10 km or more

METAR: EGDM 281650Z AUTO 30011KT 9999 OVC050/// 12/06 Q1016

Time: 18:49 (17:49 UTC)

Forecast

The report was made 7 hours and 6 minutes ago, at 10:43 UTC
Forecast valid from 28 at 12 UTC to 28 at 17 UTC
Wind 6 kt from the West/Northwest
Visibility 10 km or more
Scattered clouds at a height of 3000 ft

TAF: EGDM 281043Z 2812/2817 30006KT 9999 SCT030

Weather observations and forecasts of more than 4000 airports (METAR and TAF reports).

The available stations are represented by yellow and red dots on the map.

Hover mouse over dot to see the name of the station.

Then click to see weather observations and forecasts.

To change the map : click on the green buttons with a black cross to zoom in, on the green button with a dash to zoom out, or on the green arrows for adjacent maps.


METAR-TAF: